createdAt,value
2017-12-25T13:55:51.735Z,97770.58
2017-12-25T13:56:57.128Z,97764.25
2017-12-25T13:58:03.235Z,97763.85
2017-12-25T13:59:09.756Z,97773.81
2017-12-25T14:00:16.510Z,97771.98
2017-12-25T14:01:22.430Z,97774.16
2017-12-25T14:02:27.875Z,97779.47
2017-12-25T14:03:34.367Z,97768.57
2017-12-25T14:04:39.199Z,97776.72
2017-12-25T14:05:43.902Z,97764.59
2017-12-25T14:06:48.619Z,97761.98
2017-12-25T14:07:53.711Z,97770.69
2017-12-25T14:08:58.741Z,97764.40
2017-12-25T14:10:03.888Z,97743.67
2017-12-25T14:11:09.228Z,97763.41
2017-12-25T14:12:14.774Z,97760.82
2017-12-25T14:13:19.785Z,97767.43
2017-12-25T14:14:26.668Z,97769.98
2017-12-25T14:15:31.934Z,97769.14
2017-12-25T14:16:37.277Z,97760.02
2017-12-25T14:17:42.309Z,97765.46
2017-12-25T14:18:47.174Z,97770.08
2017-12-25T14:19:52.420Z,97754.45
2017-12-25T14:20:58.537Z,97764.77
2017-12-25T14:22:04.807Z,97757.70
2017-12-25T14:23:11.280Z,97752.74
2017-12-25T14:24:18.632Z,97754.39
2017-12-25T14:25:25.161Z,97768.89
2017-12-25T14:26:32.222Z,97763.03
2017-12-25T14:27:37.483Z,97769.33
2017-12-25T14:28:43.752Z,97764.74
2017-12-25T14:29:49.087Z,97747.38
2017-12-25T14:30:54.584Z,97750.25
2017-12-25T14:32:01.807Z,97753.92
2017-12-25T14:33:09.976Z,97743.11
2017-12-25T14:34:16.443Z,97744.96
2017-12-25T14:35:22.065Z,97743.74
2017-12-25T14:36:29.386Z,97745.92
2017-12-25T14:37:34.605Z,97736.22
2017-12-25T14:38:39.653Z,97745.30
2017-12-25T14:39:45.839Z,97736.11
2017-12-25T14:40:50.915Z,97736.59
2017-12-25T14:41:56.171Z,97736.84
2017-12-25T14:43:02.266Z,97748.40
2017-12-25T14:44:07.387Z,97738.31
2017-12-25T14:45:12.355Z,97737.66
2017-12-25T14:46:17.258Z,97735.34
2017-12-25T14:47:22.521Z,97740.05
2017-12-25T14:48:27.890Z,97736.31
2017-12-25T14:49:34.218Z,97740.17
2017-12-25T14:50:41.964Z,97738.84
2017-12-25T14:51:48.483Z,97731.42
2017-12-25T14:52:54.761Z,97738.09
2017-12-25T14:54:01.149Z,97745.16
2017-12-25T14:55:06.583Z,97730.58
2017-12-25T14:56:12.048Z,97745.45
2017-12-25T14:57:16.789Z,97735.45
2017-12-25T14:58:21.784Z,97725.80
2017-12-25T14:59:27.422Z,97729.75
2017-12-25T15:00:34.033Z,97732.71
2017-12-25T15:01:38.991Z,97720.09
2017-12-25T15:02:45.209Z,97726.39
2017-12-25T15:03:51.900Z,97739.41
2017-12-25T15:04:58.692Z,97726.22
2017-12-25T15:06:06.355Z,97719.99
2017-12-25T15:07:12.350Z,97711.27
2017-12-25T15:08:17.230Z,97723.70
2017-12-25T15:09:22.177Z,97721.12
2017-12-25T15:10:27.137Z,97729.98
2017-12-25T15:11:32.912Z,97718.05
2017-12-25T15:12:37.987Z,97726.98
2017-12-25T15:13:45.156Z,97716.23
2017-12-25T15:14:50.787Z,97712.88
2017-12-25T15:15:55.892Z,97713.80
2017-12-25T15:17:02.638Z,97721.19
2017-12-25T15:18:07.676Z,97725.36
2017-12-25T15:19:12.815Z,97717.52
2017-12-25T15:20:18.658Z,97705.23
2017-12-25T15:21:24.609Z,97712.30
2017-12-25T15:22:31.434Z,97708.67
2017-12-25T15:23:36.250Z,97723.34
2017-12-25T15:24:43.226Z,97704.73
2017-12-25T15:25:48.609Z,97698.45
2017-12-25T15:26:53.636Z,97709.26
2017-12-25T15:27:58.759Z,97702.89
2017-12-25T15:29:05.399Z,97701.94
2017-12-25T15:30:10.225Z,97728.43
2017-12-25T15:31:15.736Z,97706.39
2017-12-25T15:32:24.121Z,97703.27
2017-12-25T15:33:29.259Z,97696.78
2017-12-25T15:34:35.545Z,97699.30
2017-12-25T15:35:42.069Z,97695.45
2017-12-25T15:36:47.320Z,97733.59
2017-12-25T15:37:53.636Z,97706.88
2017-12-25T15:39:01.541Z,97700.52
2017-12-25T15:40:10.073Z,97702.59
2017-12-25T15:41:18.466Z,97693.45
2017-12-25T15:42:25.961Z,97688.47
2017-12-25T15:43:33.463Z,97685.95
2017-12-25T15:44:40.366Z,97691.33
2017-12-25T15:45:45.886Z,97685.63
2017-12-25T15:46:53.426Z,97686.17
2017-12-25T15:48:00.681Z,97700.63
2017-12-25T15:49:07.530Z,97685.02
2017-12-25T15:50:14.806Z,97688.69
2017-12-25T15:51:23.085Z,97686.27
2017-12-25T15:52:30.859Z,97685.88
2017-12-25T15:53:36.043Z,97693.93
2017-12-25T15:54:43.919Z,97682.98
2017-12-25T15:55:52.129Z,97676.42
2017-12-25T15:56:59.344Z,97676.39
2017-12-25T15:58:07.820Z,97668.13
2017-12-25T15:59:15.130Z,97675.05
2017-12-25T16:00:23.332Z,97665.39
2017-12-25T16:01:30.900Z,97670.48
2017-12-25T16:02:38.425Z,97669.62
2017-12-25T16:03:45.386Z,97672.80
2017-12-25T16:04:52.155Z,97671.27
2017-12-25T16:05:59.294Z,97676.63
2017-12-25T16:07:06.644Z,97656.94
2017-12-25T16:08:14.520Z,97664.11
2017-12-25T16:09:23.174Z,97667.04
2017-12-25T16:10:31.266Z,97661.68
2017-12-25T16:13:01.013Z,97657.57
2017-12-25T16:14:08.059Z,97654.21
2017-12-25T16:15:18.420Z,97646.19
2017-12-25T16:16:26.524Z,97660.37
2017-12-25T16:17:33.742Z,97647.72
2017-12-25T16:18:40.061Z,97662.02
2017-12-25T16:19:47.620Z,97651.14
2017-12-25T16:20:54.865Z,97654.52
2017-12-25T16:22:02.955Z,97649.77
2017-12-25T16:23:10.930Z,97657.88
2017-12-25T16:24:18.619Z,97645.90
2017-12-25T16:25:27.116Z,97653.31
2017-12-25T16:26:34.787Z,97638.39
2017-12-25T16:27:41.987Z,97635.62
2017-12-25T16:28:49.309Z,97644.62
2017-12-25T16:29:58.803Z,97636.20
2017-12-25T16:31:07.675Z,97632.33
2017-12-25T16:32:16.934Z,97625.55
2017-12-25T16:33:25.031Z,97650.92
2017-12-25T16:34:33.937Z,97645.08
2017-12-25T16:35:41.614Z,97643.08
2017-12-25T16:36:50.016Z,97649.44
2017-12-25T16:37:57.654Z,97660.34
2017-12-25T16:39:06.153Z,97660.64
2017-12-25T16:40:14.518Z,97641.98
2017-12-25T16:41:23.123Z,97649.28
2017-12-25T16:42:30.534Z,97657.67
2017-12-25T16:43:38.812Z,97653.34
2017-12-25T16:44:48.658Z,97639.20
2017-12-25T16:45:56.406Z,97640.88
2017-12-25T16:47:03.751Z,97633.38
2017-12-25T16:48:11.889Z,97633.06
2017-12-25T16:49:20.643Z,97632.89
2017-12-25T16:50:28.581Z,97634.34
2017-12-25T16:51:36.550Z,97624.20
2017-12-25T16:52:44.788Z,97637.66
2017-12-25T16:53:53.018Z,97627.94
2017-12-25T16:55:00.695Z,97625.65
2017-12-25T16:56:08.660Z,97633.84
2017-12-25T16:57:17.157Z,97625.80
2017-12-25T16:58:24.708Z,97617.09
2017-12-25T16:59:33.854Z,97619.69
2017-12-25T17:00:43.255Z,97615.59
2017-12-25T17:01:51.980Z,97621.38
2017-12-25T17:03:00.533Z,97636.24
2017-12-25T17:04:11.678Z,97618.36
2017-12-25T17:05:20.784Z,97626.95
2017-12-25T17:06:28.859Z,97630.92
2017-12-25T17:07:38.912Z,97626.48
2017-12-25T17:08:47.119Z,97628.84
2017-12-25T17:09:57.606Z,97631.37
2017-12-25T17:11:05.774Z,97616.42
2017-12-25T17:12:11.988Z,97622.27
2017-12-25T17:13:18.682Z,97631.06
2017-12-25T17:14:26.857Z,97616.45
2017-12-25T17:15:34.832Z,97630.92
2017-12-25T17:16:44.598Z,97599.27
2017-12-25T17:17:53.658Z,97612.66
2017-12-25T17:19:01.301Z,97622.87
2017-12-25T17:20:08.857Z,97607.06
2017-12-25T17:21:16.609Z,97619.98
2017-12-25T17:22:24.237Z,97615.75
2017-12-25T17:23:30.241Z,97608.44
2017-12-25T17:24:37.533Z,97609.20
2017-12-25T17:25:45.168Z,97617.01
2017-12-25T17:26:53.830Z,97604.22
2017-12-25T17:28:03.140Z,97608.38
2017-12-25T17:29:11.461Z,97603.84
2017-12-25T17:30:20.461Z,97608.00
2017-12-25T17:31:28.110Z,97600.00
2017-12-25T17:32:37.254Z,97599.22
2017-12-25T17:33:45.446Z,97592.53
2017-12-25T17:34:53.949Z,97604.25
2017-12-25T17:36:01.363Z,97595.62
2017-12-25T17:37:10.795Z,97595.11
2017-12-25T17:38:18.068Z,97593.11
2017-12-25T17:39:23.823Z,97592.38
2017-12-25T17:40:30.240Z,97589.60
2017-12-25T17:41:38.362Z,97601.15
2017-12-25T17:42:48.171Z,97593.16
2017-12-25T17:43:55.565Z,97589.00
2017-12-25T17:45:01.625Z,97586.71
2017-12-25T17:46:10.323Z,97585.00
2017-12-25T17:47:18.682Z,97588.97
2017-12-25T17:48:25.612Z,97582.25
2017-12-25T17:49:34.598Z,97589.02
2017-12-25T17:50:44.493Z,97583.32
2017-12-25T17:51:53.153Z,97583.55
2017-12-25T17:53:02.527Z,97584.77
2017-12-25T17:54:10.508Z,97579.33
2017-12-25T17:55:19.413Z,97583.58
2017-12-25T17:56:27.571Z,97591.48
2017-12-25T17:57:34.892Z,97582.31
2017-12-25T17:58:42.939Z,97580.66
2017-12-25T17:59:51.694Z,97575.48
2017-12-25T18:01:02.050Z,97583.17
2017-12-25T18:02:11.650Z,97585.72
2017-12-25T18:03:20.372Z,97583.38
2017-12-25T18:04:28.421Z,97576.20
2017-12-25T18:05:37.795Z,97575.31
2017-12-25T18:06:46.825Z,97574.73
2017-12-25T18:07:55.758Z,97569.37
2017-12-25T18:09:05.354Z,97575.53
2017-12-25T18:10:13.900Z,97564.26
2017-12-25T18:11:21.426Z,97566.45
2017-12-25T18:12:32.271Z,97561.13
2017-12-25T18:13:40.015Z,97557.10
2017-12-25T18:14:48.162Z,97559.30
2017-12-25T18:15:56.242Z,97552.56
2017-12-25T18:17:08.367Z,97543.31
2017-12-25T18:18:16.259Z,97557.83
2017-12-25T18:19:24.922Z,97549.91
2017-12-25T18:20:35.246Z,97536.97
2017-12-25T18:21:43.435Z,97548.48
2017-12-25T18:22:50.880Z,97534.58
2017-12-25T18:23:59.263Z,97545.34
2017-12-25T18:25:08.364Z,97525.53
2017-12-25T18:26:20.619Z,97528.73
2017-12-25T18:27:28.569Z,97534.84
2017-12-25T18:28:39.911Z,97526.77
2017-12-25T18:29:47.744Z,97522.69
2017-12-25T18:30:55.952Z,97518.82
2017-12-25T18:32:03.953Z,97516.28
2017-12-25T18:33:12.445Z,97530.64
2017-12-25T18:34:20.655Z,97515.61
2017-12-25T18:35:28.160Z,97510.20
2017-12-25T18:36:36.179Z,97511.53
2017-12-25T18:37:44.651Z,97520.38
2017-12-25T18:38:54.851Z,97512.45
2017-12-25T18:40:03.193Z,97515.38
2017-12-25T18:41:11.275Z,97505.11
2017-12-25T18:42:20.572Z,97515.20
2017-12-25T18:43:29.543Z,97509.82
2017-12-25T18:44:38.311Z,97509.41
2017-12-25T18:45:47.542Z,97501.84
2017-12-25T18:46:56.095Z,97498.98
2017-12-25T18:48:05.120Z,97501.09
2017-12-25T18:49:13.711Z,97498.20
2017-12-25T18:50:24.862Z,97509.99
2017-12-25T18:51:33.474Z,97504.53
2017-12-25T18:52:43.582Z,97508.28
2017-12-25T18:53:52.808Z,97506.29
2017-12-25T18:55:01.897Z,97495.59
2017-12-25T18:56:11.292Z,97507.36
2017-12-25T18:57:17.413Z,97503.89
2017-12-25T18:58:27.660Z,97496.43
2017-12-25T18:59:34.748Z,97508.68
2017-12-25T19:00:41.986Z,97499.58
2017-12-25T19:01:51.118Z,97501.95
2017-12-25T19:02:58.730Z,97507.46
2017-12-25T19:04:06.893Z,97502.61
2017-12-25T19:05:15.508Z,97494.88
2017-12-25T19:06:23.612Z,97487.52
2017-12-25T19:07:32.186Z,97485.08
2017-12-25T19:08:40.279Z,97481.00
2017-12-25T19:09:49.150Z,97473.92
2017-12-25T19:10:57.311Z,97486.44
2017-12-25T19:12:04.200Z,97492.35
2017-12-25T19:13:09.253Z,97498.33
2017-12-25T19:14:15.986Z,97485.98
2017-12-25T19:15:22.534Z,97474.37
2017-12-25T19:16:28.526Z,97462.27
2017-12-25T19:17:35.801Z,97481.69
2017-12-25T19:18:44.629Z,97476.02
2017-12-25T19:19:51.788Z,97471.42
2017-12-25T19:20:59.338Z,97464.38
2017-12-25T19:22:06.084Z,97463.45
2017-12-25T19:23:11.954Z,97474.37
2017-12-25T19:24:18.671Z,97469.05
2017-12-25T19:25:26.317Z,97466.16
2017-12-25T19:26:33.938Z,97474.12
2017-12-25T19:27:42.989Z,97462.22
2017-12-25T19:28:51.351Z,97484.50
2017-12-25T19:30:00.069Z,97443.03
2017-12-25T19:31:08.573Z,97448.72
2017-12-25T19:32:16.378Z,97423.88
2017-12-25T19:33:24.653Z,97464.90
2017-12-25T19:34:33.465Z,97456.98
2017-12-25T19:35:43.967Z,97446.61
2017-12-25T19:36:51.856Z,97448.30
2017-12-25T19:37:59.861Z,97431.71
2017-12-25T19:39:08.572Z,97432.92
2017-12-25T19:40:15.277Z,97426.91
2017-12-25T19:41:24.919Z,97427.42
2017-12-25T19:42:33.765Z,97423.16
2017-12-25T19:43:42.192Z,97423.30
2017-12-25T19:44:51.123Z,97434.84
2017-12-25T19:45:59.450Z,97423.69
2017-12-25T19:47:08.596Z,97426.98
2017-12-25T19:48:19.020Z,97435.64
2017-12-25T19:49:32.183Z,97420.42
2017-12-25T19:50:41.272Z,97425.38
2017-12-25T19:51:49.099Z,97416.52
2017-12-25T19:52:58.359Z,97410.92
2017-12-25T19:54:09.647Z,97411.90
2017-12-25T19:55:18.621Z,97412.67
2017-12-25T19:56:28.676Z,97405.25
2017-12-25T19:57:37.593Z,97400.83
2017-12-25T19:58:45.710Z,97405.48
2017-12-25T19:59:54.768Z,97404.44
2017-12-25T20:01:05.409Z,97407.33
2017-12-25T20:02:14.844Z,97393.63
2017-12-25T20:03:23.837Z,97380.59
2017-12-25T20:04:30.860Z,97381.06
2017-12-25T20:05:39.142Z,97381.52
2017-12-25T20:06:47.715Z,97379.06
2017-12-25T20:07:56.530Z,97388.98
2017-12-25T20:09:04.688Z,97383.48
2017-12-25T20:10:14.228Z,97399.02
2017-12-25T20:11:22.918Z,97387.84
2017-12-25T20:12:32.356Z,97384.66
2017-12-25T20:13:40.247Z,97402.22
2017-12-25T20:14:49.542Z,97389.09
2017-12-25T20:15:58.228Z,97383.00
2017-12-25T20:17:07.613Z,97396.20
2017-12-25T20:18:15.915Z,97400.47
2017-12-25T20:19:23.783Z,97400.55
2017-12-25T20:20:30.758Z,97399.30
2017-12-25T20:21:39.939Z,97402.70
2017-12-25T20:22:45.786Z,97372.51
2017-12-25T20:23:54.456Z,97371.10
2017-12-25T20:25:02.202Z,97377.05
2017-12-25T20:26:10.151Z,97400.66
2017-12-25T20:27:19.514Z,97373.91
2017-12-25T20:28:27.029Z,97374.83
2017-12-25T20:29:37.063Z,97387.38
2017-12-25T20:30:45.832Z,97376.99
2017-12-25T20:31:54.676Z,97387.25
2017-12-25T20:33:05.590Z,97373.45
2017-12-25T20:34:14.096Z,97386.65
2017-12-25T20:35:21.190Z,97383.36
2017-12-25T20:36:29.349Z,97392.75
2017-12-25T20:37:37.457Z,97381.12
2017-12-25T20:38:48.302Z,97387.67
2017-12-25T20:40:00.382Z,97375.12
2017-12-25T20:41:09.485Z,97382.28
2017-12-25T20:42:18.048Z,97374.45
2017-12-25T20:43:25.633Z,97387.11
2017-12-25T20:44:34.246Z,97377.53
2017-12-25T20:45:42.606Z,97391.62
2017-12-25T20:46:49.185Z,97368.89
2017-12-25T20:47:58.262Z,97359.23
2017-12-25T20:49:05.778Z,97360.16
2017-12-25T20:50:13.804Z,97362.58
2017-12-25T20:51:22.755Z,97365.50
2017-12-25T20:52:29.974Z,97360.42
2017-12-25T20:53:38.986Z,97345.12
2017-12-25T20:54:46.095Z,97344.23
2017-12-25T20:55:52.065Z,97342.61
2017-12-25T20:56:59.934Z,97352.95
2017-12-25T20:58:06.582Z,97338.97
2017-12-25T20:59:14.983Z,97323.78
2017-12-25T21:00:22.403Z,97331.64
2017-12-25T21:01:29.032Z,97332.34
2017-12-25T21:02:36.072Z,97338.34
2017-12-25T21:03:43.025Z,97328.04
2017-12-25T21:04:49.397Z,97338.70
2017-12-25T21:06:02.774Z,97325.27
2017-12-25T21:07:10.567Z,97328.58
2017-12-25T21:08:17.354Z,97327.80
2017-12-25T21:09:24.959Z,97322.44
2017-12-25T21:10:32.868Z,97321.56
2017-12-25T21:11:40.484Z,97327.23
2017-12-25T21:12:50.288Z,97323.83
2017-12-25T21:13:56.993Z,97327.98
2017-12-25T21:15:05.784Z,97325.96
2017-12-25T21:16:13.608Z,97319.27
2017-12-25T21:17:20.922Z,97324.00
2017-12-25T21:18:28.473Z,97319.44
2017-12-25T21:19:36.859Z,97311.20
2017-12-25T21:20:42.826Z,97304.59
2017-12-25T21:21:52.420Z,97303.67
2017-12-25T21:22:59.416Z,97302.05
2017-12-25T21:24:05.082Z,97305.98
2017-12-25T21:25:15.378Z,97312.80
2017-12-25T21:26:23.362Z,97311.31
2017-12-25T21:27:32.265Z,97306.00
2017-12-25T21:28:39.903Z,97313.19
2017-12-25T21:29:48.351Z,97301.98
2017-12-25T21:30:55.746Z,97322.66
2017-12-25T21:32:01.426Z,97300.40
2017-12-25T21:33:08.091Z,97301.13
2017-12-25T21:34:13.484Z,97310.24
2017-12-25T21:35:18.516Z,97306.09
2017-12-25T21:36:25.399Z,97302.33
2017-12-25T21:37:32.470Z,97298.67
2017-12-25T21:38:38.425Z,97310.03
2017-12-25T21:39:45.934Z,97312.58
2017-12-25T21:40:52.338Z,97292.61
2017-12-25T21:41:59.666Z,97362.52
2017-12-25T21:43:06.398Z,97350.30
2017-12-25T21:44:13.684Z,97324.39
2017-12-25T21:45:19.232Z,97307.40
2017-12-25T21:46:24.618Z,97342.23
2017-12-25T21:47:30.670Z,97328.22
2017-12-25T21:48:36.887Z,97307.20
2017-12-25T21:49:41.813Z,97323.01
2017-12-25T21:50:46.796Z,97328.48
2017-12-25T21:51:52.859Z,97315.27
2017-12-25T21:53:01.993Z,97309.45
2017-12-25T21:54:07.214Z,97304.81
2017-12-25T21:55:12.593Z,97311.14
2017-12-25T21:56:18.144Z,97308.45
2017-12-25T21:57:24.423Z,97300.41
2017-12-25T21:58:29.698Z,97300.36
2017-12-25T21:59:40.109Z,97294.42
2017-12-25T22:00:47.515Z,97303.05
2017-12-25T22:01:54.908Z,97320.34
2017-12-25T22:03:02.198Z,97304.38
2017-12-25T22:04:10.056Z,97296.17
2017-12-25T22:05:17.179Z,97295.86
2017-12-25T22:06:28.050Z,97304.16
2017-12-25T22:07:36.056Z,97286.36
2017-12-25T22:08:44.158Z,97286.02
2017-12-25T22:09:51.611Z,97285.95
2017-12-25T22:10:59.359Z,97294.91
2017-12-25T22:12:05.738Z,97295.18
2017-12-25T22:13:11.384Z,97297.20
2017-12-25T22:14:19.017Z,97304.81
2017-12-25T22:15:26.072Z,97303.65
2017-12-25T22:16:31.542Z,97290.89
2017-12-25T22:17:41.342Z,97290.19
2017-12-25T22:18:47.971Z,97300.03
2017-12-25T22:19:54.151Z,97276.14
2017-12-25T22:21:01.222Z,97272.85
2017-12-25T22:22:08.925Z,97270.32
2017-12-25T22:23:16.701Z,97280.08
2017-12-25T22:24:23.301Z,97274.36
2017-12-25T22:25:29.027Z,97258.65
2017-12-25T22:26:35.530Z,97278.11
2017-12-25T22:27:42.907Z,97267.78
2017-12-25T22:28:50.222Z,97257.97
2017-12-25T22:29:58.470Z,97258.32
2017-12-25T22:31:08.496Z,97257.70
2017-12-25T22:32:17.337Z,97261.42
2017-12-25T22:33:25.018Z,97261.61
2017-12-25T22:34:32.386Z,97243.84
2017-12-25T22:35:40.292Z,97260.16
2017-12-25T22:36:48.134Z,97233.73
2017-12-25T22:37:57.536Z,97252.88
2017-12-25T22:39:06.955Z,97248.94
2017-12-25T22:40:15.073Z,97246.27
2017-12-25T22:41:23.017Z,97239.20
2017-12-25T22:42:31.536Z,97235.52
2017-12-25T22:43:41.237Z,97232.55
2017-12-25T22:44:49.223Z,97229.23
2017-12-25T22:45:56.159Z,97240.88
2017-12-25T22:47:02.712Z,97226.42
2017-12-25T22:48:08.945Z,97224.61
2017-12-25T22:49:14.836Z,97226.97
2017-12-25T22:50:21.143Z,97232.68
2017-12-25T22:51:27.972Z,97226.45
2017-12-25T22:52:33.609Z,97216.47
2017-12-25T22:53:39.542Z,97223.89
2017-12-25T22:54:45.261Z,97213.67
2017-12-25T22:55:51.366Z,97214.00
2017-12-25T22:56:59.292Z,97210.08
2017-12-25T22:58:05.251Z,97201.83
2017-12-25T22:59:12.200Z,97202.40
2017-12-25T23:00:22.366Z,97223.91
2017-12-25T23:01:29.351Z,97207.34
2017-12-25T23:02:37.142Z,97204.22
2017-12-25T23:03:43.478Z,97202.92
2017-12-25T23:04:51.528Z,97200.77
2017-12-25T23:05:58.702Z,97197.91
2017-12-25T23:07:05.143Z,97200.36
2017-12-25T23:08:16.377Z,97189.31
2017-12-25T23:09:22.445Z,97198.95
2017-12-25T23:10:28.700Z,97193.06
2017-12-25T23:11:38.767Z,97187.27
2017-12-25T23:12:44.711Z,97191.62
2017-12-25T23:13:50.614Z,97200.02
2017-12-25T23:14:57.087Z,97199.61
2017-12-25T23:16:04.346Z,97192.97
2017-12-25T23:17:10.703Z,97188.09
2017-12-25T23:18:16.312Z,97190.32
2017-12-25T23:19:20.833Z,97188.73
2017-12-25T23:20:25.956Z,97199.09
2017-12-25T23:21:32.377Z,97194.56
2017-12-25T23:22:37.643Z,97189.66
2017-12-25T23:23:42.425Z,97183.80
2017-12-25T23:24:49.128Z,97188.19
2017-12-25T23:25:54.650Z,97175.72
2017-12-25T23:27:00.050Z,97173.97
2017-12-25T23:28:07.365Z,97179.70
2017-12-25T23:29:14.571Z,97182.65
2017-12-25T23:30:22.971Z,97180.74
2017-12-25T23:31:29.710Z,97180.45
2017-12-25T23:32:35.844Z,97177.52
2017-12-25T23:33:40.803Z,97182.82
2017-12-25T23:34:47.250Z,97177.39
2017-12-25T23:35:52.954Z,97174.77
2017-12-25T23:36:58.361Z,97171.45
2017-12-25T23:38:03.777Z,97180.14
2017-12-25T23:39:09.888Z,97187.27
2017-12-25T23:40:15.577Z,97181.58
2017-12-25T23:41:21.736Z,97174.08
2017-12-25T23:42:26.822Z,97181.87
2017-12-25T23:43:31.729Z,97174.11
2017-12-25T23:44:36.736Z,97178.92
2017-12-25T23:45:41.515Z,97172.32
2017-12-25T23:46:46.774Z,97174.83
2017-12-25T23:47:53.015Z,97171.42
2017-12-25T23:48:58.273Z,97165.63
2017-12-25T23:50:03.408Z,97169.29
2017-12-25T23:51:08.251Z,97175.14
2017-12-25T23:52:13.070Z,97164.39
2017-12-25T23:53:18.273Z,97158.21
2017-12-25T23:54:24.606Z,97147.07
2017-12-25T23:55:29.293Z,97154.00
2017-12-25T23:56:34.131Z,97147.05
2017-12-25T23:57:38.952Z,97156.19
2017-12-25T23:58:45.304Z,97148.63
2017-12-25T23:59:51.035Z,97143.61
